Hovedside
METAR-TAF:

METAR-TAF

Lufthavner :

Ontario Municipal Airport

Ontario, Oregon, USA

breddegrad: 44-01-10N, lengdegrad: 117-00-35W, høyde over havet: 667 m

Gjeldene værobservasjon

Denne rapporten ble laget for 11 minutter siden, klokken 03:53 UTC
Vind 3 kt fra Vest-nordvest
Temperatur 4°C
Luftfuktighet 93%
Trykk 1022 hPa
Sikt: 6.4 km
Brutte skyer i en høyde av 400 ft
Overskyet i en høyde av 1200 ft
lett regn, dis

METAR: KONO 200353Z AUTO 30003KT 4SM -RA BR BKN004 OVC012 04/03 A3019 RMK AO2 CIG 003V009 SLP239 P0003 T00390028

Tid: 21:04 (04:04 UTC)


TAF: fraværende

Værobservasjoner og værvarsel for over 4000 flyplasser (METAR- og TAF-rapporter).

Tilgjengelige stasjoner er representert av de røde og gule prikkene på kartet.

Hold musepekeren over prikken for å se navnet på stasjonen.

Klikk så for å se værobservasjoner og -varsler.

For å forandre kartet kan du klikke på den grønne knappen med svart kryss for å zoome inn, på den grønne knappen med strek for å zoome ut, eller på de grønne pilene for å se tilstøtende kart.


METAR-TAF: